Time;durP1;ratioP1;P1;durP2;ratioP2;P2;SDS_P1;SDS_P2;PMS_P1;PMS_P2;Temp;Humidity;BMP_temperature;BMP_pressure;BME280_temperature;BME280_humidity;BME280_pressure;Samples;Min_cycle;Max_cycle;Signal;HPM_P1;HPM_P2
2023/01/14 00:02:09;;;;;;;6.15;2.17;;;7.60;1.00;;;;;;5083964;27;50722;-89
2023/01/14 00:05:01;;;;;;;;;;;;;;;;;;;;;
2023/01/14 00:07:31;;;;;;;8.52;2.45;;;7.50;1.00;;;;;;5130074;27;40586;-90
2023/01/14 00:10:00;;;;;;;12.27;2.22;;;7.50;1.00;;;;;;5116457;27;20297;-90
2023/01/14 00:12:35;;;;;;;11.85;2.10;;;7.50;1.00;;;;;;5106530;27;20310;-90
2023/01/14 00:15:42;;;;;;;;;;;;;;;;;;;;;
2023/01/14 00:18:29;;;;;;;9.30;2.20;;;7.60;1.00;;;;;;5042962;28;51802;-89
2023/01/14 00:21:01;;;;;;;7.95;2.50;;;7.60;1.00;;;;;;5054589;28;20276;-89
2023/01/14 00:23:32;;;;;;;8.82;2.70;;;7.60;1.00;;;;;;5019753;28;20270;-89
2023/01/14 00:26:25;;;;;;;8.95;2.83;;;7.60;1.00;;;;;;5051030;28;20333;-90
2023/01/14 00:29:19;;;;;;;7.70;2.58;;;7.60;1.00;;;;;;5058223;27;20242;-90
2023/01/14 00:32:24;;;;;;;7.30;2.30;;;7.60;1.00;;;;;;5056121;28;20728;-90
2023/01/14 00:35:22;;;;;;;8.20;2.35;;;7.70;1.00;;;;;;5075127;27;20312;-89
2023/01/14 00:38:17;;;;;;;8.65;2.03;;;7.60;1.00;;;;;;5077656;27;20240;-89
2023/01/14 00:40:57;;;;;;;;;;;;;;;;;;;;;
2023/01/14 00:43:34;;;;;;;7.95;2.10;;;7.60;1.00;;;;;;5103561;27;38355;-89
2023/01/14 00:46:32;;;;;;;;;;;;;;;;;;;;;
2023/01/14 00:49:21;;;;;;;9.25;2.03;;;7.70;1.00;;;;;;5118404;27;20235;-89
2023/01/14 00:52:28;;;;;;;7.47;2.03;;;7.70;1.00;;;;;;5109060;27;20257;-89
2023/01/14 00:55:26;;;;;;;9.80;2.50;;;7.70;1.00;;;;;;5089936;27;20228;-90
2023/01/14 01:16:30;;;;;;;7.70;2.00;;;8.20;1.00;;;;;;4916118;28;20239;-90
2023/01/14 01:19:01;;;;;;;8.75;1.70;;;8.20;1.00;;;;;;4989173;28;21108;-89
2023/01/14 01:21:33;;;;;;;10.20;2.80;;;8.20;1.00;;;;;;5021932;28;20310;-89
2023/01/14 01:24:12;;;;;;;8.23;2.47;;;8.30;1.00;;;;;;5052533;28;20239;-89
2023/01/14 01:26:59;;;;;;;7.68;1.90;;;8.30;1.00;;;;;;5092516;27;20241;-89
2023/01/14 01:29:29;;;;;;;8.20;2.00;;;8.30;1.00;;;;;;5057021;28;20360;-89
2023/01/14 01:32:09;;;;;;;7.95;2.20;;;8.30;1.00;;;;;;5074689;27;20258;-89
2023/01/14 01:37:24;;;;;;;8.47;2.07;;;8.30;1.00;;;;;;5120369;27;20255;-89
2023/01/14 01:39:52;;;;;;;8.13;2.15;;;8.40;1.00;;;;;;5121443;27;20498;-90
2023/01/14 01:42:55;;;;;;;9.10;2.03;;;8.40;1.00;;;;;;5085269;27;20849;-89
2023/01/14 01:45:43;;;;;;;;;;;;;;;;;;;;;
2023/01/14 01:48:19;;;;;;;10.70;2.10;;;8.30;1.00;;;;;;5087756;27;51111;-90
2023/01/14 01:51:14;;;;;;;;;;;;;;;;;;;;;
2023/01/14 01:53:56;;;;;;;7.37;2.20;;;8.40;1.00;;;;;;5120167;27;40024;-89
2023/01/14 01:56:34;;;;;;;7.53;2.13;;;8.40;1.00;;;;;;5147265;27;20434;-89
2023/01/14 01:59:10;;;;;;;7.90;2.33;;;8.30;1.00;;;;;;5120421;27;20522;-88
2023/01/14 02:01:41;;;;;;;7.40;2.00;;;8.20;1.00;;;;;;5088961;27;20454;-88
2023/01/14 02:04:25;;;;;;;;;;;;;;;;;;;;;
2023/01/14 02:06:57;;;;;;;8.03;2.53;;;8.10;1.00;;;;;;5086169;27;48406;-88
2023/01/14 02:09:45;;;;;;;9.05;2.45;;;8.00;1.00;;;;;;5095339;27;20422;-89
2023/01/14 02:12:53;;;;;;;11.38;2.58;;;7.90;1.00;;;;;;5071697;27;20238;-90
2023/01/14 02:15:34;;;;;;;8.20;2.85;;;7.80;1.00;;;;;;5100843;27;20281;-89
2023/01/14 02:18:26;;;;;;;6.60;1.73;;;7.80;1.00;;;;;;5092505;27;20706;-89
2023/01/14 02:21:26;;;;;;;;;;;;;;;;;;;;;
2023/01/14 02:24:37;;;;;;;8.43;2.30;;;7.70;1.00;;;;;;5104286;27;51561;-90
2023/01/14 02:27:32;;;;;;;7.10;2.00;;;7.70;1.00;;;;;;5122723;27;20232;-89
2023/01/14 02:30:41;;;;;;;7.10;1.92;;;7.70;1.00;;;;;;5123214;27;20244;-89
2023/01/14 02:33:45;;;;;;;7.38;1.73;;;7.60;1.00;;;;;;5040893;28;20254;-89
2023/01/14 02:36:29;;;;;;;;;;;;;;;;;;;;;
2023/01/14 02:39:26;;;;;;;9.55;2.20;;;7.60;1.00;;;;;;5068730;28;50877;-89
2023/01/14 02:45:13;;;;;;;6.85;2.05;;;7.60;1.00;;;;;;5023973;28;20285;-88
2023/01/14 02:47:54;;;;;;;;;;;;;;;;;;;;;
2023/01/14 02:50:23;;;;;;;9.43;2.25;;;7.50;1.00;;;;;;5082581;27;41122;-90
2023/01/14 02:52:53;;;;;;;11.18;2.40;;;7.50;1.00;;;;;;5108553;27;20240;-90
2023/01/14 02:55:55;;;;;;;8.27;2.05;;;7.50;1.00;;;;;;5096290;27;20440;-89
2023/01/14 02:58:54;;;;;;;7.70;2.42;;;7.40;1.00;;;;;;5105752;27;20237;-89
2023/01/14 03:01:46;;;;;;;;;;;;;;;;;;;;;
2023/01/14 03:04:37;;;;;;;8.77;3.17;;;7.30;1.00;;;;;;5113224;27;49943;-88
2023/01/14 03:07:24;;;;;;;;;;;;;;;;;;;;;
2023/01/14 03:10:24;;;;;;;8.80;2.85;;;7.30;1.00;;;;;;5083216;27;39583;-90
2023/01/14 03:13:11;;;;;;;10.20;2.90;;;7.30;1.00;;;;;;5101949;27;20259;-89
2023/01/14 03:16:23;;;;;;;7.13;2.15;;;7.30;1.00;;;;;;5102257;27;20382;-90
2023/01/14 03:19:16;;;;;;;8.18;2.05;;;7.20;1.00;;;;;;5002379;28;20243;-90
2023/01/14 03:22:16;;;;;;;6.75;2.00;;;7.20;1.00;;;;;;5093598;27;20224;-89
2023/01/14 03:24:57;;;;;;;;;;;;;;;;;;;;;
2023/01/14 03:27:29;;;;;;;7.22;2.30;;;7.20;1.00;;;;;;5031608;28;39861;-90
2023/01/14 03:30:03;;;;;;;11.27;2.28;;;7.20;1.00;;;;;;5035902;28;20229;-90
2023/01/14 03:32:38;;;;;;;8.25;2.30;;;7.20;1.00;;;;;;5056550;28;20593;-89
2023/01/14 03:35:08;;;;;;;6.72;2.30;;;7.10;1.00;;;;;;5069838;28;20286;-89
2023/01/14 03:37:59;;;;;;;10.52;1.77;;;7.10;1.00;;;;;;5117774;27;20243;-89
2023/01/14 03:40:39;;;;;;;9.90;2.53;;;7.10;1.00;;;;;;5026734;28;20259;-90
2023/01/14 03:43:20;;;;;;;9.73;2.90;;;7.10;1.00;;;;;;5076794;27;20310;-90
2023/01/14 03:45:56;;;;;;;8.90;2.00;;;7.10;1.00;;;;;;5142393;27;20267;-89
2023/01/14 03:48:26;;;;;;;7.25;1.88;;;7.10;1.00;;;;;;5136494;27;20230;-89
2023/01/14 03:51:21;;;;;;;7.72;2.40;;;7.10;1.00;;;;;;5081995;27;21104;-89
2023/01/14 03:54:06;;;;;;;7.18;1.90;;;7.20;1.00;;;;;;5052145;27;25838;-89
2023/01/14 03:56:50;;;;;;;8.65;2.00;;;7.20;1.00;;;;;;5119709;27;20242;-89
2023/01/14 03:59:25;;;;;;;7.50;1.83;;;7.20;1.00;;;;;;5132465;27;20238;-90
2023/01/14 04:01:55;;;;;;;9.48;2.72;;;7.20;1.00;;;;;;5104607;27;20447;-90
2023/01/14 04:04:25;;;;;;;7.45;1.95;;;7.20;1.00;;;;;;5093742;27;20320;-90
2023/01/14 04:07:00;;;;;;;9.40;2.08;;;7.20;1.00;;;;;;5117051;27;20842;-90
2023/01/14 04:09:55;;;;;;;6.63;1.80;;;7.20;1.00;;;;;;5116229;27;20225;-91
2023/01/14 04:15:20;;;;;;;6.85;2.20;;;7.10;1.00;;;;;;5117269;27;20303;-88
2023/01/14 04:15:30;;;;;;;9.52;2.63;;;7.20;1.00;;;;;;5117171;27;20441;-90
2023/01/14 04:18:03;;;;;;;7.35;1.83;;;7.20;1.00;;;;;;5128527;27;20243;-88
2023/01/14 04:20:32;;;;;;;11.80;2.55;;;7.20;1.00;;;;;;5110615;27;20242;-90
2023/01/14 04:23:10;;;;;;;10.27;2.60;;;7.20;1.00;;;;;;5114211;27;20241;-89
2023/01/14 04:26:00;;;;;;;8.50;2.15;;;7.20;1.00;;;;;;5119985;27;20235;-89
2023/01/14 04:28:52;;;;;;;8.15;1.98;;;7.20;1.00;;;;;;5028582;28;20221;-91
2023/01/14 04:31:48;;;;;;;7.85;2.35;;;7.10;1.00;;;;;;4999637;28;20243;-90
2023/01/14 04:34:30;;;;;;;9.32;2.67;;;7.10;1.00;;;;;;5117459;27;20245;-89
2023/01/14 04:37:01;;;;;;;8.03;2.40;;;7.20;1.00;;;;;;5103150;27;20248;-89
2023/01/14 04:39:42;;;;;;;;;;;;;;;;;;;;;
2023/01/14 04:42:31;;;;;;;8.40;2.58;;;7.20;1.00;;;;;;5108061;27;40902;-90
2023/01/14 04:45:32;;;;;;;9.52;2.33;;;7.20;1.00;;;;;;5094010;27;20302;-90
2023/01/14 04:48:10;;;;;;;;;;;;;;;;;;;;;
2023/01/14 04:50:44;;;;;;;6.85;2.00;;;7.30;1.00;;;;;;5098110;27;40040;-89
2023/01/14 04:53:26;;;;;;;11.63;2.63;;;7.30;1.00;;;;;;5107358;27;20242;-88
2023/01/14 04:55:58;;;;;;;7.47;2.33;;;7.40;1.00;;;;;;5120976;27;20240;-88
2023/01/14 04:59:01;;;;;;;12.45;2.72;;;7.40;1.00;;;;;;5114819;27;20227;-89
2023/01/14 05:02:16;;;;;;;;;;;;;;;;;;;;;
2023/01/14 05:05:04;;;;;;;;;;;;;;;;;;;;;
2023/01/14 05:07:39;;;;;;;8.73;3.27;;;7.50;1.00;;;;;;5022313;28;37624;-89
2023/01/14 05:10:42;;;;;;;8.38;3.00;;;7.50;1.00;;;;;;5041651;28;21349;-89
2023/01/14 05:13:21;;;;;;;10.38;2.88;;;7.50;1.00;;;;;;5035410;28;20240;-89
2023/01/14 05:16:02;;;;;;;7.93;2.42;;;7.50;1.00;;;;;;5020920;28;21175;-89
2023/01/14 05:18:32;;;;;;;8.68;2.42;;;7.50;1.00;;;;;;5065130;28;20238;-89
2023/01/14 05:21:37;;;;;;;9.20;2.55;;;7.50;1.00;;;;;;5053003;28;20235;-89
2023/01/14 05:24:09;;;;;;;9.33;2.83;;;7.50;1.00;;;;;;5068803;28;20239;-89
2023/01/14 05:26:52;;;;;;;8.57;2.25;;;7.50;1.00;;;;;;5006998;27;20441;-89
2023/01/14 05:29:31;;;;;;;8.30;2.92;;;7.50;1.00;;;;;;5116627;27;20235;-90
2023/01/14 05:32:01;;;;;;;7.53;2.40;;;7.50;1.00;;;;;;5076637;27;20223;-89
2023/01/14 05:34:30;;;;;;;10.38;2.25;;;7.60;1.00;;;;;;5101758;27;20232;-89
2023/01/14 05:37:09;;;;;;;8.05;2.20;;;7.60;1.00;;;;;;5113896;27;20283;-89
2023/01/14 05:40:18;;;;;;;7.13;2.10;;;7.60;1.00;;;;;;5112166;27;20236;-89
2023/01/14 05:52:53;;;;;;;8.07;2.13;;;7.60;1.00;;;;;;4957521;28;20239;-89
2023/01/14 05:55:43;;;;;;;8.88;2.10;;;7.60;1.00;;;;;;4992642;28;20452;-88
2023/01/14 05:58:13;;;;;;;9.40;2.10;;;7.60;1.00;;;;;;5064077;27;20301;-89
2023/01/14 06:09:38;;;;;;;;;;;;;;;;;;;;;
2023/01/14 06:12:33;;;;;;;7.55;2.88;;;7.80;1.00;;;;;;5112372;27;50756;-89
2023/01/14 06:15:17;;;;;;;;;;;;;;;;;;;;;
2023/01/14 06:17:56;;;;;;;;;;;;;;;;;;;;;
2023/01/14 06:20:28;;;;;;;7.00;1.87;;;7.80;1.00;;;;;;5128633;27;40062;-90
2023/01/14 06:23:15;;;;;;;;;;;;;;;;;;;;;
2023/01/14 06:25:46;;;;;;;8.25;2.15;;;7.90;1.00;;;;;;5109103;27;40582;-89
2023/01/14 06:28:19;;;;;;;8.85;2.28;;;7.90;1.00;;;;;;5141695;27;20226;-89
2023/01/14 06:31:06;;;;;;;;;;;;;;;;;;;;;
2023/01/14 06:33:46;;;;;;;;;;;;;;;;;;;;;
2023/01/14 06:36:37;;;;;;;7.20;2.37;;;8.00;1.00;;;;;;5109180;27;37720;-90
2023/01/14 06:39:22;;;;;;;9.47;2.27;;;8.00;1.00;;;;;;5102349;27;20460;-89
2023/01/14 06:41:52;;;;;;;8.77;2.25;;;8.00;1.00;;;;;;5121448;27;20479;-90
2023/01/14 06:44:23;;;;;;;9.60;2.28;;;8.00;1.00;;;;;;5127417;27;20226;-89
2023/01/14 06:46:52;;;;;;;7.10;2.38;;;8.00;1.00;;;;;;5113244;27;20238;-89
2023/01/14 06:49:42;;;;;;;7.70;2.33;;;7.90;1.00;;;;;;5131937;27;20228;-90
2023/01/14 06:52:11;;;;;;;8.95;2.72;;;7.80;1.00;;;;;;5125780;27;20430;-89
2023/01/14 06:54:44;;;;;;;9.55;2.15;;;7.80;1.00;;;;;;5129319;27;20229;-89
2023/01/14 06:57:20;;;;;;;7.00;2.00;;;7.80;1.00;;;;;;5128241;27;20242;-89
2023/01/14 06:59:49;;;;;;;8.98;2.20;;;7.70;1.00;;;;;;5093829;27;20405;-88
2023/01/14 07:02:36;;;;;;;;;;;;;;;;;;;;;
2023/01/14 07:05:24;;;;;;;;;;;;;;;;;;;;;
2023/01/14 07:08:08;;;;;;;6.50;2.10;;;7.50;1.00;;;;;;5128063;27;42178;-89
2023/01/14 07:10:48;;;;;;;;;;;;;;;;;;;;;
2023/01/14 07:13:27;;;;;;;;;;;;;;;;;;;;;
2023/01/14 07:16:26;;;;;;;;;;;;;;;;;;;;;
2023/01/14 07:18:54;;;;;;;7.80;2.15;;;7.50;1.00;;;;;;5122446;27;50490;-88
2023/01/14 07:22:01;;;;;;;;;;;;;;;;;;;;;
2023/01/14 07:24:37;;;;;;;7.78;2.13;;;7.50;1.00;;;;;;5103240;27;50567;-89
2023/01/14 07:27:20;;;;;;;6.80;1.95;;;7.50;1.00;;;;;;5133031;27;20246;-89
2023/01/14 07:29:59;;;;;;;;;;;;;;;;;;;;;
2023/01/14 07:33:00;;;;;;;7.05;2.28;;;7.40;1.00;;;;;;5139644;27;41812;-88
2023/01/14 07:39:04;;;;;;;;;;;;;;;;;;;;;
2023/01/14 07:41:56;;;;;;;10.52;3.03;;;7.30;1.00;;;;;;5077600;27;40491;-90
2023/01/14 07:44:32;;;;;;;8.13;1.98;;;7.20;1.00;;;;;;5113783;27;20228;-89
2023/01/14 07:47:23;;;;;;;8.38;1.83;;;7.20;1.00;;;;;;5108868;27;20274;-90
2023/01/14 07:49:53;;;;;;;8.95;2.20;;;7.20;1.00;;;;;;5080686;27;20234;-89
2023/01/14 07:52:22;;;;;;;10.98;2.92;;;7.20;1.00;;;;;;5108837;27;20462;-89
2023/01/14 07:55:17;;;;;;;10.73;2.63;;;7.20;1.00;;;;;;5121128;27;20777;-91
2023/01/14 07:57:57;;;;;;;8.57;3.10;;;7.20;1.00;;;;;;5060655;27;20246;-90
2023/01/14 08:00:57;;;;;;;11.13;2.40;;;7.10;1.00;;;;;;5110017;27;20236;-90
2023/01/14 08:03:35;;;;;;;8.82;2.75;;;7.10;1.00;;;;;;5114741;27;20229;-90
2023/01/14 08:06:17;;;;;;;;;;;;;;;;;;;;;
2023/01/14 08:08:45;;;;;;;8.32;2.30;;;7.10;1.00;;;;;;5086264;27;40743;-90
2023/01/14 08:11:36;;;;;;;11.90;2.75;;;7.30;1.00;;;;;;5112537;27;20304;-90
2023/01/14 08:14:11;;;;;;;10.25;2.30;;;7.40;1.00;;;;;;5092856;27;20257;-90
2023/01/14 08:16:46;;;;;;;10.85;2.90;;;7.50;1.00;;;;;;5095264;27;20235;-90
2023/01/14 08:19:23;;;;;;;8.48;3.00;;;7.60;1.00;;;;;;5123687;27;20944;-90
2023/01/14 08:22:27;;;;;;;;;;;;;;;;;;;;;
2023/01/14 08:25:45;;;;;;;;;;;;;;;;;;;;;
2023/01/14 08:28:40;;;;;;;;;;;;;;;;;;;;;
2023/01/14 08:31:29;;;;;;;7.80;2.50;;;7.90;1.00;;;;;;4998658;28;50754;-90
2023/01/14 08:34:28;;;;;;;8.80;3.17;;;8.00;1.00;;;;;;4966932;28;20480;-90
2023/01/14 08:37:34;;;;;;;8.33;2.17;;;8.10;1.00;;;;;;5018928;28;20459;-90
2023/01/14 08:40:48;;;;;;;;;;;;;;;;;;;;;
2023/01/14 08:43:54;;;;;;;;;;;;;;;;;;;;;
2023/01/14 08:46:43;;;;;;;13.10;2.53;;;8.30;1.00;;;;;;4988225;28;51850;-91
2023/01/14 08:49:24;;;;;;;7.50;2.50;;;8.40;1.00;;;;;;5027486;28;20450;-89
2023/01/14 08:52:02;;;;;;;8.50;2.10;;;8.40;1.00;;;;;;5023419;28;20832;-88
2023/01/14 08:55:07;;;;;;;;;;;;;;;;;;;;;
2023/01/14 08:58:06;;;;;;;8.33;2.07;;;8.50;1.00;;;;;;5104151;27;40887;-90
2023/01/14 09:01:04;;;;;;;8.75;2.47;;;8.60;1.00;;;;;;5002560;27;20478;-90
2023/01/14 09:04:07;;;;;;;;;;;;;;;;;;;;;
2023/01/14 09:18:46;;;;;;;8.30;2.30;;;9.30;1.00;;;;;;5120106;27;20420;-89
2023/01/14 09:24:47;;;;;;;8.90;2.20;;;9.70;1.00;;;;;;5066273;27;20454;-89
2023/01/14 09:27:36;;;;;;;6.47;1.50;;;9.70;1.00;;;;;;5098486;27;20984;-88
2023/01/14 09:30:27;;;;;;;8.30;2.17;;;9.70;1.00;;;;;;5108409;27;20525;-89
2023/01/14 09:33:06;;;;;;;8.10;1.93;;;9.80;1.00;;;;;;5123980;27;20422;-89
2023/01/14 09:35:48;;;;;;;;;;;;;;;;;;;;;
2023/01/14 09:38:30;;;;;;;;;;;;;;;;;;;;;
2023/01/14 09:41:37;;;;;;;9.40;1.90;;;10.40;1.00;;;;;;5043856;27;50992;-90
2023/01/14 09:44:19;;;;;;;;;;;;;;;;;;;;;
2023/01/14 09:47:17;;;;;;;7.87;1.60;;;10.30;1.00;;;;;;5104725;27;40705;-91
2023/01/14 09:50:06;;;;;;;6.60;1.80;;;10.50;1.00;;;;;;5095954;27;20421;-91
2023/01/14 09:56:17;;;;;;;;;;;;;;;;;;;;;
2023/01/14 10:15:39;;;;;;;10.13;2.80;;;11.10;1.00;;;;;;4954680;28;20535;-95
2023/01/14 10:38:10;;;;;;;11.83;2.87;;;10.80;1.00;;;;;;5141100;27;20504;-84
2023/01/14 10:46:36;;;;;;;15.57;3.00;;;10.70;1.00;;;;;;5119468;27;20426;-84
2023/01/14 10:52:49;;;;;;;;;;;;;;;;;;;;;
2023/01/14 10:55:29;;;;;;;;;;;;;;;;;;;;;
2023/01/14 10:58:28;;;;;;;;;;;;;;;;;;;;;
2023/01/14 11:01:35;;;;;;;11.30;2.57;;;10.70;1.00;;;;;;4994313;28;50236;-85
2023/01/14 12:10:37;;;;;;;9.77;2.60;;;9.70;1.00;;;;;;5098296;28;20434;-86
2023/01/14 12:19:00;;;;;;;9.80;2.20;;;9.70;1.00;;;;;;5103723;28;22273;-85
2023/01/14 12:21:58;;;;;;;;;;;;;;;;;;;;;
2023/01/14 12:24:57;;;;;;;10.30;3.00;;;9.40;1.00;;;;;;5101039;27;49258;-86
2023/01/14 12:31:54;;;;;;;;;;;;;;;;;;;;;
2023/01/14 12:34:50;;;;;;;12.10;2.65;;;9.30;1.00;;;;;;4873880;29;50548;-85
2023/01/14 12:37:39;;;;;;;;;;;;;;;;;;;;;
2023/01/14 13:18:39;;;;;;;8.53;2.37;;;9.20;1.00;;;;;;6244252;22;20453;-85
2023/01/14 13:22:11;;;;;;;14.37;3.10;;;9.10;1.00;;;;;;6243090;22;20407;-86
2023/01/14 13:25:19;;;;;;;;;;;;;;;;;;;;;
2023/01/14 13:27:58;;;;;;;9.10;2.53;;;9.00;1.00;;;;;;6243912;22;40047;-85
2023/01/14 13:34:46;;;;;;;9.88;2.45;;;9.00;1.00;;;;;;6150696;23;20281;-85
2023/01/14 13:37:28;;;;;;;11.17;3.30;;;8.90;1.00;;;;;;6154501;23;20274;-84
2023/01/14 13:40:01;;;;;;;11.40;2.28;;;8.80;1.00;;;;;;6256368;22;20453;-85
2023/01/14 13:42:47;;;;;;;12.07;2.67;;;8.90;1.00;;;;;;6276251;22;20285;-83
2023/01/14 13:45:29;;;;;;;9.23;2.40;;;8.90;1.00;;;;;;6227209;22;20483;-86
2023/01/14 13:51:38;;;;;;;;;;;;;;;;;;;;;
2023/01/14 13:57:37;;;;;;;9.93;2.00;;;8.80;1.00;;;;;;6258982;22;20217;-83
2023/01/14 14:01:00;;;;;;;;;;;;;;;;;;;;;
2023/01/14 14:03:48;;;;;;;11.40;2.50;;;8.80;1.00;;;;;;6235252;22;51452;-84
2023/01/14 14:06:39;;;;;;;8.70;2.03;;;8.80;1.00;;;;;;6249342;22;20210;-85
2023/01/14 14:09:12;;;;;;;12.75;3.00;;;8.80;1.00;;;;;;6275326;22;20376;-85
2023/01/14 14:11:58;;;;;;;9.43;3.30;;;8.80;1.00;;;;;;6244498;22;20223;-85
2023/01/14 14:14:57;;;;;;;6.73;2.00;;;8.80;1.00;;;;;;6230505;22;20441;-86
2023/01/14 14:17:47;;;;;;;10.60;2.83;;;8.80;1.00;;;;;;6062642;23;20424;-85
2023/01/14 14:23:24;;;;;;;14.60;3.03;;;8.80;1.00;;;;;;6080898;23;20264;-85
2023/01/14 14:25:55;;;;;;;10.57;3.30;;;8.60;1.00;;;;;;6243964;22;20436;-85
2023/01/14 14:28:29;;;;;;;10.70;3.00;;;8.30;1.00;;;;;;6225531;22;20670;-85
2023/01/14 14:31:27;;;;;;;11.40;3.70;;;8.20;1.00;;;;;;6227030;22;20219;-84
2023/01/14 14:34:22;;;;;;;;;;;;;;;;;;;;;
2023/01/14 14:37:01;;;;;;;12.65;3.05;;;7.70;1.00;;;;;;6217460;22;39918;-85
2023/01/14 14:46:21;;;;;;;;;;;;;;;;;;;;;
2023/01/14 14:49:40;;;;;;;10.02;3.10;;;7.10;1.00;;;;;;6107794;23;40015;-85
2023/01/14 14:56:08;;;;;;;11.35;3.20;;;6.90;1.00;;;;;;6159446;23;20972;-86
2023/01/14 14:59:11;;;;;;;;;;;;;;;;;;;;;
2023/01/14 15:12:33;;;;;;;10.48;2.95;;;6.70;1.00;;;;;;6100498;23;20278;-85
2023/01/14 15:18:49;;;;;;;11.43;3.45;;;6.70;1.00;;;;;;6231554;22;21064;-82
2023/01/14 15:24:54;;;;;;;17.48;3.90;;;6.70;1.00;;;;;;6191374;22;20817;-83
2023/01/14 15:33:49;;;;;;;12.50;3.58;;;6.70;1.00;;;;;;6232488;22;20201;-83
2023/01/14 15:36:32;;;;;;;;;;;;;;;;;;;;;
2023/01/14 15:39:21;;;;;;;11.52;3.20;;;6.70;1.00;;;;;;6225525;22;49885;-84
2023/01/14 15:45:12;;;;;;;14.25;3.72;;;6.70;1.00;;;;;;6180184;22;20221;-85
2023/01/14 15:48:03;;;;;;;;;;;;;;;;;;;;;
2023/01/14 15:51:01;;;;;;;12.23;2.78;;;6.70;1.00;;;;;;6202815;22;38468;-84
2023/01/14 15:53:59;;;;;;;11.13;3.30;;;6.80;1.00;;;;;;6088060;23;20365;-85
2023/01/14 15:57:03;;;;;;;;;;;;;;;;;;;;;
2023/01/14 15:59:42;;;;;;;;;;;;;;;;;;;;;
2023/01/14 16:02:52;;;;;;;;;;;;;;;;;;;;;
2023/01/14 16:05:41;;;;;;;9.45;2.95;;;6.80;1.00;;;;;;6212457;22;50712;-85
2023/01/14 16:17:41;;;;;;;11.32;3.10;;;6.80;1.00;;;;;;6164197;22;20939;-83
2023/01/14 16:20:28;;;;;;;11.05;3.55;;;6.80;1.00;;;;;;6244431;22;20213;-83
2023/01/14 16:22:57;;;;;;;11.55;3.45;;;6.80;1.00;;;;;;6231890;22;20213;-85
2023/01/14 16:25:28;;;;;;;12.93;3.75;;;6.80;1.00;;;;;;6225970;22;20734;-84
2023/01/14 16:28:03;;;;;;;11.02;3.05;;;6.70;1.00;;;;;;6237209;22;20217;-86
2023/01/14 16:30:32;;;;;;;12.85;3.28;;;6.70;1.00;;;;;;6238541;22;20201;-84
2023/01/14 16:33:00;;;;;;;10.43;2.60;;;6.70;1.00;;;;;;6240677;22;20267;-83
2023/01/14 16:35:28;;;;;;;10.43;2.95;;;6.70;1.00;;;;;;6244314;22;20219;-83
2023/01/14 16:37:57;;;;;;;9.55;2.95;;;6.70;1.00;;;;;;6257847;22;20213;-85
2023/01/14 16:40:38;;;;;;;13.32;3.13;;;6.70;1.00;;;;;;6244947;22;20234;-90
2023/01/14 16:43:18;;;;;;;11.45;3.05;;;6.70;1.00;;;;;;6275696;22;20196;-92
2023/01/14 16:46:07;;;;;;;11.48;4.50;;;6.70;1.00;;;;;;6284190;22;20291;-90
2023/01/14 16:48:38;;;;;;;10.38;2.65;;;6.70;1.00;;;;;;6283775;22;20260;-91
2023/01/14 16:51:28;;;;;;;10.82;3.58;;;6.70;1.00;;;;;;6252594;22;20218;-90
2023/01/14 16:53:57;;;;;;;12.00;2.60;;;6.70;1.00;;;;;;6240266;22;20695;-91
2023/01/14 16:56:35;;;;;;;11.38;2.65;;;6.70;1.00;;;;;;6281994;22;20208;-89
2023/01/14 16:59:14;;;;;;;12.60;2.53;;;6.70;1.00;;;;;;6314545;22;20212;-90
2023/01/14 17:01:54;;;;;;;14.18;2.75;;;6.70;1.00;;;;;;6280549;22;20191;-89
2023/01/14 17:04:28;;;;;;;9.48;2.65;;;6.70;1.00;;;;;;6303945;22;20200;-90
2023/01/14 17:07:38;;;;;;;12.55;3.08;;;6.70;1.00;;;;;;6302345;22;20250;-90
2023/01/14 17:13:18;;;;;;;8.43;2.50;;;6.70;1.00;;;;;;6310448;22;20211;-90
2023/01/14 17:15:55;;;;;;;9.45;2.03;;;6.70;1.00;;;;;;6299377;22;20285;-92
2023/01/14 17:18:27;;;;;;;12.23;2.90;;;6.70;1.00;;;;;;6314040;22;20208;-90
2023/01/14 17:21:05;;;;;;;7.93;2.78;;;6.70;1.00;;;;;;6254953;22;20667;-89
2023/01/14 17:26:38;;;;;;;10.30;2.50;;;6.70;1.00;;;;;;6296580;22;20199;-90
2023/01/14 17:29:15;;;;;;;8.48;2.22;;;6.70;1.00;;;;;;6312406;22;20230;-90
2023/01/14 17:31:47;;;;;;;10.40;2.85;;;6.70;1.00;;;;;;6312220;22;20297;-90
2023/01/14 17:34:45;;;;;;;7.18;2.35;;;6.70;1.00;;;;;;6297023;22;20214;-92
2023/01/14 17:37:39;;;;;;;;;;;;;;;;;;;;;
2023/01/14 17:40:14;;;;;;;11.45;2.60;;;6.70;1.00;;;;;;6279988;22;50857;-91
2023/01/14 17:42:54;;;;;;;10.75;3.10;;;6.70;1.00;;;;;;6251124;22;20264;-88
2023/01/14 17:45:45;;;;;;;8.50;2.80;;;6.80;1.00;;;;;;6305974;22;20949;-89
2023/01/14 17:48:29;;;;;;;;;;;;;;;;;;;;;
2023/01/14 17:51:18;;;;;;;9.73;2.90;;;6.80;1.00;;;;;;6219355;22;49831;-90
2023/01/14 17:53:56;;;;;;;8.45;3.22;;;6.70;1.00;;;;;;6229087;22;20205;-91
2023/01/14 17:59:35;;;;;;;7.93;2.50;;;6.80;1.00;;;;;;6302104;22;20209;-90
2023/01/14 18:08:37;;;;;;;;;;;;;;;;;;;;;
2023/01/14 18:11:18;;;;;;;8.55;2.75;;;6.80;1.00;;;;;;6116639;22;50900;-91
2023/01/14 18:13:57;;;;;;;8.40;2.50;;;6.80;1.00;;;;;;6257113;22;20234;-90
2023/01/14 18:16:59;;;;;;;6.35;2.05;;;6.80;1.00;;;;;;6285467;22;21009;-92
2023/01/14 18:19:35;;;;;;;9.02;2.72;;;6.80;1.00;;;;;;6261017;22;20513;-91
2023/01/14 18:22:17;;;;;;;12.02;2.58;;;6.80;1.00;;;;;;6260805;22;20285;-91
2023/01/14 18:24:57;;;;;;;8.70;2.30;;;6.80;1.00;;;;;;6298906;22;20236;-91
2023/01/14 18:36:20;;;;;;;;;;;;;;;;;;;;;
2023/01/14 18:38:49;;;;;;;9.13;2.42;;;6.90;1.00;;;;;;6270454;22;41404;-89
2023/01/14 18:41:29;;;;;;;12.88;3.28;;;7.00;1.00;;;;;;6255277;22;20966;-91
2023/01/14 18:43:59;;;;;;;9.02;3.38;;;7.00;1.00;;;;;;6288617;22;20242;-91
2023/01/14 18:49:46;;;;;;;5.95;2.20;;;7.00;1.00;;;;;;6258492;22;20964;-91
2023/01/14 18:52:29;;;;;;;12.45;2.60;;;7.00;1.00;;;;;;6167728;23;20214;-90
2023/01/14 18:54:57;;;;;;;7.05;2.30;;;7.00;1.00;;;;;;6187639;23;20212;-92
2023/01/14 18:57:47;;;;;;;8.15;2.70;;;7.00;1.00;;;;;;6187676;23;20211;-92
2023/01/14 19:00:39;;;;;;;6.55;2.17;;;7.00;1.00;;;;;;6161947;23;20219;-91
2023/01/14 19:03:19;;;;;;;8.57;2.78;;;7.00;1.00;;;;;;6189537;23;20237;-90
2023/01/14 19:06:10;;;;;;;7.32;2.30;;;7.00;1.00;;;;;;6151566;23;20218;-90
2023/01/14 19:08:38;;;;;;;6.25;2.47;;;7.10;1.00;;;;;;6183037;23;20238;-91
2023/01/14 19:13:49;;;;;;;9.15;2.55;;;7.10;1.00;;;;;;6244677;22;20300;-92
2023/01/14 19:16:25;;;;;;;10.70;2.80;;;7.10;1.00;;;;;;6314976;22;20215;-92
2023/01/14 19:18:59;;;;;;;10.13;3.20;;;7.10;1.00;;;;;;6286044;22;20215;-90
2023/01/14 19:21:55;;;;;;;7.78;2.42;;;7.10;1.00;;;;;;6269990;22;20206;-91
2023/01/14 19:24:37;;;;;;;6.43;2.53;;;7.10;1.00;;;;;;6248549;22;20277;-89
2023/01/14 19:27:07;;;;;;;7.65;3.00;;;7.10;1.00;;;;;;6265880;22;20204;-90
2023/01/14 19:29:38;;;;;;;7.07;2.80;;;7.10;1.00;;;;;;6274715;22;20673;-91
2023/01/14 19:32:09;;;;;;;9.30;2.88;;;7.10;1.00;;;;;;6280246;22;20208;-89
2023/01/14 19:34:40;;;;;;;10.13;3.22;;;7.10;1.00;;;;;;6267244;22;20206;-89
2023/01/14 19:40:18;;;;;;;13.20;4.00;;;7.10;1.00;;;;;;6255274;22;20734;-92
2023/01/14 19:42:58;;;;;;;7.95;2.72;;;7.10;1.00;;;;;;6277413;22;21092;-91
2023/01/14 19:45:28;;;;;;;10.85;3.30;;;7.10;1.00;;;;;;6239898;22;20266;-92
2023/01/14 19:48:06;;;;;;;10.00;3.83;;;7.10;1.00;;;;;;6267619;22;20206;-91
2023/01/14 19:50:49;;;;;;;8.48;3.30;;;7.20;1.00;;;;;;6236126;22;20200;-92
2023/01/14 19:53:28;;;;;;;9.50;2.72;;;7.10;1.00;;;;;;6267860;22;20212;-91
2023/01/14 19:55:59;;;;;;;9.02;2.97;;;7.20;1.00;;;;;;6235768;22;20200;-93
2023/01/14 20:01:30;;;;;;;7.80;3.40;;;7.20;1.00;;;;;;6166678;22;20208;-83
2023/01/14 20:03:58;;;;;;;10.00;3.00;;;7.20;1.00;;;;;;6317499;22;20216;-83
2023/01/14 20:06:38;;;;;;;11.10;3.30;;;7.20;1.00;;;;;;6360620;22;20227;-82
2023/01/14 20:09:38;;;;;;;8.75;3.30;;;7.20;1.00;;;;;;6344618;22;20270;-82
2023/01/14 20:12:39;;;;;;;7.43;2.90;;;7.20;1.00;;;;;;6342892;22;20690;-82
2023/01/14 20:15:17;;;;;;;7.25;2.88;;;7.20;1.00;;;;;;6360359;22;20317;-82
2023/01/14 20:17:48;;;;;;;7.07;2.83;;;7.20;1.00;;;;;;6361486;22;20223;-82
2023/01/14 20:20:28;;;;;;;8.80;3.40;;;7.30;1.00;;;;;;6363950;22;20220;-83
2023/01/14 20:22:58;;;;;;;6.57;2.80;;;7.30;1.00;;;;;;6359179;22;20219;-81
2023/01/14 20:25:28;;;;;;;7.88;2.90;;;7.30;1.00;;;;;;6362226;22;20207;-84
2023/01/14 20:28:00;;;;;;;6.95;3.13;;;7.30;1.00;;;;;;6358746;22;20277;-82
2023/01/14 20:30:27;;;;;;;8.70;3.10;;;7.30;1.00;;;;;;6361565;22;20927;-82
2023/01/14 20:32:57;;;;;;;6.43;3.10;;;7.30;1.00;;;;;;6357662;22;20223;-83
2023/01/14 20:35:28;;;;;;;8.27;3.20;;;7.30;1.00;;;;;;6362503;22;20211;-83
2023/01/14 20:37:58;;;;;;;8.00;2.15;;;7.30;1.00;;;;;;6358932;22;20207;-81
2023/01/14 20:40:28;;;;;;;7.28;3.30;;;7.30;1.00;;;;;;6360063;22;20200;-81
2023/01/14 20:43:00;;;;;;;8.35;2.47;;;7.30;1.00;;;;;;6360192;22;20291;-82
2023/01/14 20:45:38;;;;;;;7.78;2.78;;;7.30;1.00;;;;;;6358756;22;20211;-82
2023/01/14 20:48:28;;;;;;;7.63;3.00;;;7.30;1.00;;;;;;6360430;22;20206;-82
2023/01/14 20:51:07;;;;;;;6.07;2.10;;;7.30;1.00;;;;;;6360943;22;20211;-82
2023/01/14 20:53:37;;;;;;;6.85;2.47;;;7.30;1.00;;;;;;6360639;22;20215;-82
2023/01/14 20:56:20;;;;;;;6.95;2.67;;;7.30;1.00;;;;;;6359941;22;20199;-82
2023/01/14 21:01:38;;;;;;;8.20;2.75;;;7.40;1.00;;;;;;6361220;22;20196;-83
2023/01/14 21:04:08;;;;;;;6.78;2.25;;;7.40;1.00;;;;;;6357438;22;20211;-83
2023/01/14 21:06:45;;;;;;;6.72;2.60;;;7.40;1.00;;;;;;6358493;22;20251;-82
2023/01/14 21:09:18;;;;;;;5.68;1.67;;;7.40;1.00;;;;;;6362171;22;20223;-82
2023/01/14 21:11:48;;;;;;;6.90;2.80;;;7.40;1.00;;;;;;6364872;22;20211;-81
2023/01/14 21:23:17;;;;;;;8.38;2.42;;;7.50;1.00;;;;;;6367575;22;20206;-82